sensor_id;sensor_type;location;lat;lon;timestamp;temperature;humidity
38221;DHT22;24023;51.280;7.148;2023-06-10T00:00:13;20.1;76.5
38221;DHT22;24023;51.280;7.148;2023-06-10T00:05:08;20.1;76.5
38221;DHT22;24023;51.280;7.148;2023-06-10T00:10:08;20.0;77.4
38221;DHT22;24023;51.280;7.148;2023-06-10T00:15:09;19.8;79.6
38221;DHT22;24023;51.280;7.148;2023-06-10T00:20:10;19.8;77.5
38221;DHT22;24023;51.280;7.148;2023-06-10T00:25:09;19.8;77.5
38221;DHT22;24023;51.280;7.148;2023-06-10T00:30:10;19.8;77.5
38221;DHT22;24023;51.280;7.148;2023-06-10T00:35:07;19.9;78.8
38221;DHT22;24023;51.280;7.148;2023-06-10T00:40:10;19.9;78.8
38221;DHT22;24023;51.280;7.148;2023-06-10T00:45:10;19.7;77.5
38221;DHT22;24023;51.280;7.148;2023-06-10T00:50:09;19.7;77.5
38221;DHT22;24023;51.280;7.148;2023-06-10T00:55:08;19.7;77.5
38221;DHT22;24023;51.280;7.148;2023-06-10T01:00:11;20.0;76.5
38221;DHT22;24023;51.280;7.148;2023-06-10T01:05:07;20.0;76.5
38221;DHT22;24023;51.280;7.148;2023-06-10T01:10:12;19.8;77.7
38221;DHT22;24023;51.280;7.148;2023-06-10T01:15:09;19.8;77.7
38221;DHT22;24023;51.280;7.148;2023-06-10T01:20:12;19.6;77.8
38221;DHT22;24023;51.280;7.148;2023-06-10T01:25:08;19.5;78.5
38221;DHT22;24023;51.280;7.148;2023-06-10T01:30:15;19.5;78.5
38221;DHT22;24023;51.280;7.148;2023-06-10T01:35:08;19.5;78.5
38221;DHT22;24023;51.280;7.148;2023-06-10T01:40:08;19.4;77.9
38221;DHT22;24023;51.280;7.148;2023-06-10T01:45:10;19.4;77.9
38221;DHT22;24023;51.280;7.148;2023-06-10T01:50:08;19.7;76.9
38221;DHT22;24023;51.280;7.148;2023-06-10T01:55:07;19.7;76.9
38221;DHT22;24023;51.280;7.148;2023-06-10T02:00:12;19.7;76.9
38221;DHT22;24023;51.280;7.148;2023-06-10T02:05:07;19.7;76.5
38221;DHT22;24023;51.280;7.148;2023-06-10T02:10:08;19.4;78.8
38221;DHT22;24023;51.280;7.148;2023-06-10T02:15:08;19.4;78.8
38221;DHT22;24023;51.280;7.148;2023-06-10T02:20:11;19.4;78.8
38221;DHT22;24023;51.280;7.148;2023-06-10T02:25:07;18.9;79.7
38221;DHT22;24023;51.280;7.148;2023-06-10T02:30:11;18.8;80.5
38221;DHT22;24023;51.280;7.148;2023-06-10T02:35:06;18.8;80.5
38221;DHT22;24023;51.280;7.148;2023-06-10T02:40:10;18.8;80.5
38221;DHT22;24023;51.280;7.148;2023-06-10T02:45:11;18.7;79.5
38221;DHT22;24023;51.280;7.148;2023-06-10T02:50:09;18.8;80.3
38221;DHT22;24023;51.280;7.148;2023-06-10T02:55:07;18.8;80.3
38221;DHT22;24023;51.280;7.148;2023-06-10T03:00:12;18.7;81.7
38221;DHT22;24023;51.280;7.148;2023-06-10T03:05:10;18.7;81.7
38221;DHT22;24023;51.280;7.148;2023-06-10T03:10:08;18.7;79.1
38221;DHT22;24023;51.280;7.148;2023-06-10T03:15:08;18.6;82.1
38221;DHT22;24023;51.280;7.148;2023-06-10T03:20:11;18.5;80.2
38221;DHT22;24023;51.280;7.148;2023-06-10T03:25:07;18.4;80.2
38221;DHT22;24023;51.280;7.148;2023-06-10T03:30:10;18.4;82.6
38221;DHT22;24023;51.280;7.148;2023-06-10T03:35:07;18.3;80.3
38221;DHT22;24023;51.280;7.148;2023-06-10T03:40:10;18.3;80.2
38221;DHT22;24023;51.280;7.148;2023-06-10T03:45:10;18.3;80.2
38221;DHT22;24023;51.280;7.148;2023-06-10T03:50:09;18.2;82.3
38221;DHT22;24023;51.280;7.148;2023-06-10T03:55:07;18.4;79.7
38221;DHT22;24023;51.280;7.148;2023-06-10T04:00:14;18.4;79.7
38221;DHT22;24023;51.280;7.148;2023-06-10T04:05:07;18.4;79.7
38221;DHT22;24023;51.280;7.148;2023-06-10T04:10:09;18.7;77.7
38221;DHT22;24023;51.280;7.148;2023-06-10T04:15:08;18.7;77.7
38221;DHT22;24023;51.280;7.148;2023-06-10T04:20:09;18.9;77.6
38221;DHT22;24023;51.280;7.148;2023-06-10T04:25:09;18.9;77.6
38221;DHT22;24023;51.280;7.148;2023-06-10T04:30:11;18.7;79.9
38221;DHT22;24023;51.280;7.148;2023-06-10T04:35:07;18.8;82.3
38221;DHT22;24023;51.280;7.148;2023-06-10T04:40:09;18.8;76.8
38221;DHT22;24023;51.280;7.148;2023-06-10T04:45:11;19.0;78.8
38221;DHT22;24023;51.280;7.148;2023-06-10T04:50:08;18.8;81.5
38221;DHT22;24023;51.280;7.148;2023-06-10T04:55:08;18.8;81.5
38221;DHT22;24023;51.280;7.148;2023-06-10T05:00:12;18.8;79.2
38221;DHT22;24023;51.280;7.148;2023-06-10T05:05:07;19.3;78.5
38221;DHT22;24023;51.280;7.148;2023-06-10T05:10:09;19.5;78.5
38221;DHT22;24023;51.280;7.148;2023-06-10T05:15:08;19.6;78.8
38221;DHT22;24023;51.280;7.148;2023-06-10T05:20:10;19.7;77.1
38221;DHT22;24023;51.280;7.148;2023-06-10T05:25:07;19.9;77.8
38221;DHT22;24023;51.280;7.148;2023-06-10T05:30:10;19.9;77.8
38221;DHT22;24023;51.280;7.148;2023-06-10T05:35:07;19.9;77.8
38221;DHT22;24023;51.280;7.148;2023-06-10T05:40:09;20.2;77.8
38221;DHT22;24023;51.280;7.148;2023-06-10T05:45:10;20.2;77.8
38221;DHT22;24023;51.280;7.148;2023-06-10T05:50:09;20.2;77.8
38221;DHT22;24023;51.280;7.148;2023-06-10T05:55:08;20.5;76.3
38221;DHT22;24023;51.280;7.148;2023-06-10T06:00:12;20.6;77.3
38221;DHT22;24023;51.280;7.148;2023-06-10T06:05:07;20.8;75.2
38221;DHT22;24023;51.280;7.148;2023-06-10T06:10:08;20.9;77.8
38221;DHT22;24023;51.280;7.148;2023-06-10T06:15:10;21.0;75.4
38221;DHT22;24023;51.280;7.148;2023-06-10T06:20:08;21.0;75.4
38221;DHT22;24023;51.280;7.148;2023-06-10T06:25:07;21.3;75.3
38221;DHT22;24023;51.280;7.148;2023-06-10T06:30:10;21.3;75.3
38221;DHT22;24023;51.280;7.148;2023-06-10T06:35:08;21.6;70.8
38221;DHT22;24023;51.280;7.148;2023-06-10T06:40:09;21.6;70.8
38221;DHT22;24023;51.280;7.148;2023-06-10T06:45:11;21.9;70.5
38221;DHT22;24023;51.280;7.148;2023-06-10T06:50:09;22.1;72.8
38221;DHT22;24023;51.280;7.148;2023-06-10T06:55:07;22.2;70.8
38221;DHT22;24023;51.280;7.148;2023-06-10T07:00:12;22.2;72.2
38221;DHT22;24023;51.280;7.148;2023-06-10T07:05:07;22.2;72.2
38221;DHT22;24023;51.280;7.148;2023-06-10T07:10:09;22.4;73.9
38221;DHT22;24023;51.280;7.148;2023-06-10T07:15:09;22.4;71.6
38221;DHT22;24023;51.280;7.148;2023-06-10T07:20:09;22.6;71.9
38221;DHT22;24023;51.280;7.148;2023-06-10T07:25:07;22.6;71.9
38221;DHT22;24023;51.280;7.148;2023-06-10T07:30:10;22.7;71.4
38221;DHT22;24023;51.280;7.148;2023-06-10T07:35:09;22.9;71.7
38221;DHT22;24023;51.280;7.148;2023-06-10T07:40:08;22.8;71.4
38221;DHT22;24023;51.280;7.148;2023-06-10T07:45:09;23.0;71.7
38221;DHT22;24023;51.280;7.148;2023-06-10T07:50:09;23.3;74.3
38221;DHT22;24023;51.280;7.148;2023-06-10T07:55:07;23.3;71.6
38221;DHT22;24023;51.280;7.148;2023-06-10T08:00:12;23.4;73.9
38221;DHT22;24023;51.280;7.148;2023-06-10T08:05:07;23.5;70.9
38221;DHT22;24023;51.280;7.148;2023-06-10T08:10:08;23.7;69.7
38221;DHT22;24023;51.280;7.148;2023-06-10T08:15:09;23.8;71.4
38221;DHT22;24023;51.280;7.148;2023-06-10T08:20:09;23.8;73.6
38221;DHT22;24023;51.280;7.148;2023-06-10T08:25:08;24.0;71.1
38221;DHT22;24023;51.280;7.148;2023-06-10T08:30:12;24.0;71.0
38221;DHT22;24023;51.280;7.148;2023-06-10T08:35:07;24.2;70.9
38221;DHT22;24023;51.280;7.148;2023-06-10T08:40:09;24.4;71.1
38221;DHT22;24023;51.280;7.148;2023-06-10T08:45:15;24.3;74.1
38221;DHT22;24023;51.280;7.148;2023-06-10T08:50:09;24.3;71.4
38221;DHT22;24023;51.280;7.148;2023-06-10T08:55:11;24.3;71.4
38221;DHT22;24023;51.280;7.148;2023-06-10T09:00:12;24.6;71.1
38221;DHT22;24023;51.280;7.148;2023-06-10T09:05:08;24.7;70.5
38221;DHT22;24023;51.280;7.148;2023-06-10T09:10:09;24.8;71.0
38221;DHT22;24023;51.280;7.148;2023-06-10T09:15:09;24.9;68.5
38221;DHT22;24023;51.280;7.148;2023-06-10T09:20:10;25.1;68.6
38221;DHT22;24023;51.280;7.148;2023-06-10T09:25:10;25.5;74.0
38221;DHT22;24023;51.280;7.148;2023-06-10T09:30:10;25.8;69.7
38221;DHT22;24023;51.280;7.148;2023-06-10T09:35:09;25.8;65.9
38221;DHT22;24023;51.280;7.148;2023-06-10T09:40:09;26.1;64.8
38221;DHT22;24023;51.280;7.148;2023-06-10T09:45:09;26.2;66.6
38221;DHT22;24023;51.280;7.148;2023-06-10T09:50:09;26.6;64.9
38221;DHT22;24023;51.280;7.148;2023-06-10T09:55:08;26.7;65.4
38221;DHT22;24023;51.280;7.148;2023-06-10T10:00:14;26.7;64.7
38221;DHT22;24023;51.280;7.148;2023-06-10T10:05:07;26.9;66.0
38221;DHT22;24023;51.280;7.148;2023-06-10T10:10:10;27.3;62.5
38221;DHT22;24023;51.280;7.148;2023-06-10T10:15:09;27.6;65.3
38221;DHT22;24023;51.280;7.148;2023-06-10T10:20:09;27.5;63.1
38221;DHT22;24023;51.280;7.148;2023-06-10T10:25:11;27.5;65.8
38221;DHT22;24023;51.280;7.148;2023-06-10T10:30:12;28.0;62.3
38221;DHT22;24023;51.280;7.148;2023-06-10T10:35:09;28.0;64.5
38221;DHT22;24023;51.280;7.148;2023-06-10T10:40:08;28.4;63.8
38221;DHT22;24023;51.280;7.148;2023-06-10T10:45:10;28.6;62.3
38221;DHT22;24023;51.280;7.148;2023-06-10T10:50:14;28.6;61.6
38221;DHT22;24023;51.280;7.148;2023-06-10T10:55:12;28.7;59.4
38221;DHT22;24023;51.280;7.148;2023-06-10T11:00:11;28.9;59.4
38221;DHT22;24023;51.280;7.148;2023-06-10T11:05:07;28.9;59.4
38221;DHT22;24023;51.280;7.148;2023-06-10T11:10:09;29.6;57.6
38221;DHT22;24023;51.280;7.148;2023-06-10T11:15:08;29.7;57.4
38221;DHT22;24023;51.280;7.148;2023-06-10T11:20:09;29.7;57.4
38221;DHT22;24023;51.280;7.148;2023-06-10T11:25:13;29.6;56.1
38221;DHT22;24023;51.280;7.148;2023-06-10T11:30:19;29.6;56.1
38221;DHT22;24023;51.280;7.148;2023-06-10T11:35:07;29.6;56.1
38221;DHT22;24023;51.280;7.148;2023-06-10T11:40:10;29.1;56.5
38221;DHT22;24023;51.280;7.148;2023-06-10T11:45:14;28.3;59.4
38221;DHT22;24023;51.280;7.148;2023-06-10T11:50:10;27.7;57.9
38221;DHT22;24023;51.280;7.148;2023-06-10T11:55:08;28.0;61.1
38221;DHT22;24023;51.280;7.148;2023-06-10T12:00:12;28.9;55.2
38221;DHT22;24023;51.280;7.148;2023-06-10T12:05:11;29.7;55.5
38221;DHT22;24023;51.280;7.148;2023-06-10T12:10:08;30.5;57.5
38221;DHT22;24023;51.280;7.148;2023-06-10T12:15:09;29.6;55.6
38221;DHT22;24023;51.280;7.148;2023-06-10T12:20:24;29.1;56.2
38221;DHT22;24023;51.280;7.148;2023-06-10T12:25:08;27.6;60.0
38221;DHT22;24023;51.280;7.148;2023-06-10T12:30:10;28.8;57.2
38221;DHT22;24023;51.280;7.148;2023-06-10T12:35:08;29.4;54.8
38221;DHT22;24023;51.280;7.148;2023-06-10T12:40:10;30.8;54.2
38221;DHT22;24023;51.280;7.148;2023-06-10T12:45:11;30.5;51.0
38221;DHT22;24023;51.280;7.148;2023-06-10T12:50:09;31.2;55.9
38221;DHT22;24023;51.280;7.148;2023-06-10T12:55:07;31.4;53.9
38221;DHT22;24023;51.280;7.148;2023-06-10T13:00:16;31.8;52.8
38221;DHT22;24023;51.280;7.148;2023-06-10T13:05:07;31.3;49.1
38221;DHT22;24023;51.280;7.148;2023-06-10T13:10:09;30.3;51.5
38221;DHT22;24023;51.280;7.148;2023-06-10T13:15:09;29.6;54.3
38221;DHT22;24023;51.280;7.148;2023-06-10T13:20:08;31.0;53.3
38221;DHT22;24023;51.280;7.148;2023-06-10T13:25:09;31.9;50.6
38221;DHT22;24023;51.280;7.148;2023-06-10T13:30:11;32.1;51.9
38221;DHT22;24023;51.280;7.148;2023-06-10T13:35:08;31.9;52.1
38221;DHT22;24023;51.280;7.148;2023-06-10T13:40:11;32.0;47.9
38221;DHT22;24023;51.280;7.148;2023-06-10T13:45:10;31.4;50.8
38221;DHT22;24023;51.280;7.148;2023-06-10T13:50:09;30.3;52.2
38221;DHT22;24023;51.280;7.148;2023-06-10T13:55:08;29.2;52.9
38221;DHT22;24023;51.280;7.148;2023-06-10T14:00:11;29.2;52.9
38221;DHT22;24023;51.280;7.148;2023-06-10T14:05:07;28.6;55.3
38221;DHT22;24023;51.280;7.148;2023-06-10T14:10:09;28.6;55.3
38221;DHT22;24023;51.280;7.148;2023-06-10T14:15:08;28.1;55.5
38221;DHT22;24023;51.280;7.148;2023-06-10T14:20:09;29.2;53.6
38221;DHT22;24023;51.280;7.148;2023-06-10T14:25:07;30.6;49.8
38221;DHT22;24023;51.280;7.148;2023-06-10T14:30:10;30.4;51.5
38221;DHT22;24023;51.280;7.148;2023-06-10T14:35:07;29.3;52.6
38221;DHT22;24023;51.280;7.148;2023-06-10T14:40:09;29.3;52.6
38221;DHT22;24023;51.280;7.148;2023-06-10T14:45:11;30.0;50.4
38221;DHT22;24023;51.280;7.148;2023-06-10T14:50:09;29.1;52.6
38221;DHT22;24023;51.280;7.148;2023-06-10T14:55:06;29.1;52.6
38221;DHT22;24023;51.280;7.148;2023-06-10T15:00:13;29.9;49.9
38221;DHT22;24023;51.280;7.148;2023-06-10T15:05:07;30.5;51.0
38221;DHT22;24023;51.280;7.148;2023-06-10T15:10:09;30.5;51.0
38221;DHT22;24023;51.280;7.148;2023-06-10T15:15:08;31.3;48.8
38221;DHT22;24023;51.280;7.148;2023-06-10T15:20:09;31.3;48.8
38221;DHT22;24023;51.280;7.148;2023-06-10T15:25:07;31.0;48.8
38221;DHT22;24023;51.280;7.148;2023-06-10T15:30:10;29.9;50.9
38221;DHT22;24023;51.280;7.148;2023-06-10T15:35:07;29.6;48.8
38221;DHT22;24023;51.280;7.148;2023-06-10T15:40:09;29.9;49.2
38221;DHT22;24023;51.280;7.148;2023-06-10T15:45:10;28.7;50.5
38221;DHT22;24023;51.280;7.148;2023-06-10T15:50:08;28.2;47.4
38221;DHT22;24023;51.280;7.148;2023-06-10T15:55:07;28.2;47.4
38221;DHT22;24023;51.280;7.148;2023-06-10T16:00:13;29.2;48.4
38221;DHT22;24023;51.280;7.148;2023-06-10T16:05:07;30.3;49.6
38221;DHT22;24023;51.280;7.148;2023-06-10T16:10:08;30.8;46.9
38221;DHT22;24023;51.280;7.148;2023-06-10T16:15:08;31.1;46.6
38221;DHT22;24023;51.280;7.148;2023-06-10T16:20:09;31.0;49.8
38221;DHT22;24023;51.280;7.148;2023-06-10T16:25:07;31.0;49.8
38221;DHT22;24023;51.280;7.148;2023-06-10T16:30:11;31.2;45.7
38221;DHT22;24023;51.280;7.148;2023-06-10T16:35:08;31.0;44.6
38221;DHT22;24023;51.280;7.148;2023-06-10T16:40:08;31.1;45.3
38221;DHT22;24023;51.280;7.148;2023-06-10T16:45:10;31.0;48.0
38221;DHT22;24023;51.280;7.148;2023-06-10T16:50:08;31.0;48.0
38221;DHT22;24023;51.280;7.148;2023-06-10T16:55:07;30.6;48.1
38221;DHT22;24023;51.280;7.148;2023-06-10T17:00:11;30.6;48.1
38221;DHT22;24023;51.280;7.148;2023-06-10T17:05:06;29.5;50.7
38221;DHT22;24023;51.280;7.148;2023-06-10T17:10:09;28.4;51.2
38221;DHT22;24023;51.280;7.148;2023-06-10T17:15:08;28.0;53.6
38221;DHT22;24023;51.280;7.148;2023-06-10T17:20:09;28.0;53.6
38221;DHT22;24023;51.280;7.148;2023-06-10T17:25:06;28.0;53.6
38221;DHT22;24023;51.280;7.148;2023-06-10T17:30:12;27.1;54.0
38221;DHT22;24023;51.280;7.148;2023-06-10T17:35:08;27.1;54.0
38221;DHT22;24023;51.280;7.148;2023-06-10T17:40:09;26.5;57.1
38221;DHT22;24023;51.280;7.148;2023-06-10T17:45:10;26.5;57.1
38221;DHT22;24023;51.280;7.148;2023-06-10T17:50:08;26.5;57.1
38221;DHT22;24023;51.280;7.148;2023-06-10T17:55:07;26.2;56.3
38221;DHT22;24023;51.280;7.148;2023-06-10T18:00:12;26.1;57.5
38221;DHT22;24023;51.280;7.148;2023-06-10T18:05:06;26.1;57.5
38221;DHT22;24023;51.280;7.148;2023-06-10T18:10:09;25.8;56.8
38221;DHT22;24023;51.280;7.148;2023-06-10T18:15:08;25.8;56.8
38221;DHT22;24023;51.280;7.148;2023-06-10T18:20:08;25.6;57.1
38221;DHT22;24023;51.280;7.148;2023-06-10T18:25:07;25.5;59.7
38221;DHT22;24023;51.280;7.148;2023-06-10T18:30:10;25.4;58.7
38221;DHT22;24023;51.280;7.148;2023-06-10T18:35:07;25.4;58.7
38221;DHT22;24023;51.280;7.148;2023-06-10T18:40:08;25.2;60.4
38221;DHT22;24023;51.280;7.148;2023-06-10T18:45:11;25.2;60.4
38221;DHT22;24023;51.280;7.148;2023-06-10T18:50:09;25.2;60.4
38221;DHT22;24023;51.280;7.148;2023-06-10T18:55:07;24.9;61.5
38221;DHT22;24023;51.280;7.148;2023-06-10T19:00:13;24.9;61.5
38221;DHT22;24023;51.280;7.148;2023-06-10T19:05:09;24.7;62.6
38221;DHT22;24023;51.280;7.148;2023-06-10T19:10:08;24.7;62.6
38221;DHT22;24023;51.280;7.148;2023-06-10T19:15:09;24.4;63.5
38221;DHT22;24023;51.280;7.148;2023-06-10T19:20:09;24.4;63.5
38221;DHT22;24023;51.280;7.148;2023-06-10T19:25:06;24.4;63.5
38221;DHT22;24023;51.280;7.148;2023-06-10T19:30:10;24.1;64.2
38221;DHT22;24023;51.280;7.148;2023-06-10T19:35:07;24.1;64.2
38221;DHT22;24023;51.280;7.148;2023-06-10T19:40:09;23.9;64.8
38221;DHT22;24023;51.280;7.148;2023-06-10T19:45:09;23.9;64.8
38221;DHT22;24023;51.280;7.148;2023-06-10T19:50:09;23.9;64.8
38221;DHT22;24023;51.280;7.148;2023-06-10T19:55:07;23.8;65.3
38221;DHT22;24023;51.280;7.148;2023-06-10T20:00:11;23.8;65.3
38221;DHT22;24023;51.280;7.148;2023-06-10T20:05:07;23.7;65.1
38221;DHT22;24023;51.280;7.148;2023-06-10T20:10:08;23.7;65.1
38221;DHT22;24023;51.280;7.148;2023-06-10T20:15:08;23.7;65.1
38221;DHT22;24023;51.280;7.148;2023-06-10T20:20:09;23.5;64.8
38221;DHT22;24023;51.280;7.148;2023-06-10T20:25:07;23.5;64.8
38221;DHT22;24023;51.280;7.148;2023-06-10T20:30:10;23.3;65.4
38221;DHT22;24023;51.280;7.148;2023-06-10T20:35:08;23.3;65.4
38221;DHT22;24023;51.280;7.148;2023-06-10T20:40:09;23.0;66.0
38221;DHT22;24023;51.280;7.148;2023-06-10T20:45:11;23.0;66.0
38221;DHT22;24023;51.280;7.148;2023-06-10T20:50:08;23.0;66.0
38221;DHT22;24023;51.280;7.148;2023-06-10T20:55:07;22.8;65.9
38221;DHT22;24023;51.280;7.148;2023-06-10T21:00:12;22.8;65.9
38221;DHT22;24023;51.280;7.148;2023-06-10T21:05:07;22.7;66.8
38221;DHT22;24023;51.280;7.148;2023-06-10T21:10:09;22.7;66.8
38221;DHT22;24023;51.280;7.148;2023-06-10T21:15:08;22.7;66.8
38221;DHT22;24023;51.280;7.148;2023-06-10T21:20:09;22.6;65.8
38221;DHT22;24023;51.280;7.148;2023-06-10T21:25:08;22.6;65.8
38221;DHT22;24023;51.280;7.148;2023-06-10T21:30:10;22.3;66.5
38221;DHT22;24023;51.280;7.148;2023-06-10T21:35:07;22.3;66.5
38221;DHT22;24023;51.280;7.148;2023-06-10T21:40:09;22.3;67.1
38221;DHT22;24023;51.280;7.148;2023-06-10T21:45:10;22.3;67.1
38221;DHT22;24023;51.280;7.148;2023-06-10T21:50:09;22.3;67.1
38221;DHT22;24023;51.280;7.148;2023-06-10T21:55:07;21.9;68.6
38221;DHT22;24023;51.280;7.148;2023-06-10T22:00:21;21.6;70.7
38221;DHT22;24023;51.280;7.148;2023-06-10T22:05:08;21.6;70.7
38221;DHT22;24023;51.280;7.148;2023-06-10T22:10:09;21.1;73.2
38221;DHT22;24023;51.280;7.148;2023-06-10T22:15:08;21.1;73.2
38221;DHT22;24023;51.280;7.148;2023-06-10T22:20:09;21.2;72.3
38221;DHT22;24023;51.280;7.148;2023-06-10T22:25:07;21.4;70.1
38221;DHT22;24023;51.280;7.148;2023-06-10T22:30:11;21.4;70.1
38221;DHT22;24023;51.280;7.148;2023-06-10T22:35:09;21.3;71.2
38221;DHT22;24023;51.280;7.148;2023-06-10T22:40:09;21.3;71.2
38221;DHT22;24023;51.280;7.148;2023-06-10T22:45:11;21.2;71.4
38221;DHT22;24023;51.280;7.148;2023-06-10T22:50:09;21.2;71.4
38221;DHT22;24023;51.280;7.148;2023-06-10T22:55:07;20.9;73.5
38221;DHT22;24023;51.280;7.148;2023-06-10T23:00:14;20.8;73.6
38221;DHT22;24023;51.280;7.148;2023-06-10T23:05:08;20.8;73.6
38221;DHT22;24023;51.280;7.148;2023-06-10T23:10:08;20.9;72.7
38221;DHT22;24023;51.280;7.148;2023-06-10T23:15:08;20.9;72.7
38221;DHT22;24023;51.280;7.148;2023-06-10T23:20:09;20.9;72.7
38221;DHT22;24023;51.280;7.148;2023-06-10T23:25:07;21.1;70.6
38221;DHT22;24023;51.280;7.148;2023-06-10T23:30:09;21.1;70.6
38221;DHT22;24023;51.280;7.148;2023-06-10T23:35:07;21.5;69.2
38221;DHT22;24023;51.280;7.148;2023-06-10T23:40:09;21.5;69.2
38221;DHT22;24023;51.280;7.148;2023-06-10T23:45:10;21.5;69.2
38221;DHT22;24023;51.280;7.148;2023-06-10T23:50:08;21.4;69.8
38221;DHT22;24023;51.280;7.148;2023-06-10T23:55:07;21.4;69.8
